Rice, Minnesota
Current Conditions -  °F | °C
As of 7:58 PM on Wednesday 26 Nov 2014 (Local Time) from KLXL Reporting Station
Clear Clear  
Wind Chill:   Ceiling: Unl
Heat Index: 10°   Visibility: 10mi
Dew Point: -8°   Wind: 6mph
Humidity: 44%   Direction: 340°NNW
Pressure: 30.38"   Gusts: NA
Location:  45.75°N, 94.22°W
Report Text: KLXL 270158Z AUTO 34005KT 10SM CLR M12/M22 A3038 RMK AO2
Loading
Personal Weather Stations






























Interactive Weather Map New forecast layout! Learn more

10-Day Weather Forecast

Advertisements
Track Severe Weather on mobile